首页
METAR-TAF:

METAR-TAF

机场 :

RAF

Spadeadam, 英格兰

纬度: 55-03N, 经度: 002-33W, 海拔: 325米

当前天气观测

该预报发布于54分钟前的07:50 UTC
风速8节,风向东北
温度 1°C
湿度 69%
气压 1044 hPa
能见度10公里或以上

METAR: EGOM 290750Z AUTO 04008KT 9999 OVC041/// 01/M04 Q1044 REUP

时间: 09:44 (08:44 UTC)


TAF: 丢失

超过4000个机场的气象观测和天气预报(METAR&TAF报告)。

可查询的气象台以黄色和红色小点在地图上表示。

将鼠标移到小点上方,可查看气象台名称。

然后点击查看天气观测和预报。

如需切换地图:点击带黑十字的绿色按钮放大地图;点击带横线的绿色按钮缩小地图;或者点击绿色箭头查看邻近地区的地图。


METAR-TAF: